Time;durP1;ratioP1;P1;durP2;ratioP2;P2;SDS_P1;SDS_P2;PMS_P1;PMS_P2;Temp;Humidity;BMP_temperature;BMP_pressure;BME280_temperature;BME280_humidity;BME280_pressure;Samples;Min_cycle;Max_cycle;Signal;HPM_P1;HPM_P2
2023/07/24 00:01:23;;;;;;;11.20;7.43;;;;;;;20.50;73.31;64121.44;5128431;28;20227;-77
2023/07/24 00:03:50;;;;;;;10.65;7.68;;;;;;;20.51;72.32;64124.56;5128214;28;20252;-76
2023/07/24 00:06:17;;;;;;;9.77;7.28;;;;;;;20.51;72.13;64124.56;5129171;28;20411;-77
2023/07/24 00:08:44;;;;;;;9.90;7.97;;;;;;;20.50;71.87;64124.03;5126044;28;20475;-77
2023/07/24 00:11:13;;;;;;;9.60;7.78;;;;;;;20.49;72.22;64123.00;5128210;28;20210;-77
2023/07/24 00:13:40;;;;;;;11.07;7.03;;;;;;;20.54;72.07;64128.22;5130237;28;20211;-77
2023/07/24 00:16:08;;;;;;;10.75;7.45;;;;;;;20.52;70.65;64126.13;5132231;28;20210;-78
2023/07/24 00:18:35;;;;;;;10.73;8.30;;;;;;;20.51;68.18;64119.91;5124878;28;20215;-77
2023/07/24 00:21:03;;;;;;;14.48;8.52;;;;;;;20.47;67.52;64120.38;5129003;28;20219;-77
2023/07/24 00:23:30;;;;;;;9.73;7.93;;;;;;;20.47;67.45;64125.56;5127353;28;20207;-77
2023/07/24 00:25:57;;;;;;;11.40;7.82;;;;;;;20.50;67.54;64120.94;5127635;28;20218;-77
2023/07/24 00:28:26;;;;;;;10.75;7.65;;;;;;;20.44;67.87;64117.25;5127532;28;20195;-77
2023/07/24 00:30:53;;;;;;;12.45;8.73;;;;;;;20.40;68.64;64110.47;5125435;28;20233;-77
2023/07/24 00:33:20;;;;;;;14.13;8.18;;;;;;;20.39;69.30;64106.84;5131016;28;20202;-76
2023/07/24 00:35:46;;;;;;;10.50;7.50;;;;;;;20.41;69.66;64108.94;5125687;28;20198;-77
2023/07/24 00:38:14;;;;;;;13.77;7.88;;;;;;;20.38;69.38;64113.59;5126352;28;20437;-77
2023/07/24 00:40:41;;;;;;;11.55;7.75;;;;;;;20.36;69.34;64108.91;5127057;28;20221;-76
2023/07/24 00:43:07;;;;;;;12.65;8.10;;;;;;;20.39;70.23;64109.44;5125124;28;20199;-77
2023/07/24 00:45:36;;;;;;;11.30;8.02;;;;;;;20.42;71.00;64112.56;5125417;28;20261;-76
2023/07/24 00:48:04;;;;;;;10.23;7.93;;;;;;;20.39;71.47;64114.63;5131442;28;20243;-75
2023/07/24 00:50:32;;;;;;;11.85;8.35;;;;;;;20.37;70.58;64110.47;5128773;28;20293;-76
2023/07/24 00:52:59;;;;;;;13.10;7.85;;;;;;;20.30;68.88;64098.00;5127237;28;20428;-76
2023/07/24 00:55:26;;;;;;;14.45;8.75;;;;;;;20.26;69.12;64098.47;5122615;28;20266;-76
2023/07/24 00:57:53;;;;;;;10.80;7.85;;;;;;;20.26;67.55;64101.06;5125310;28;20519;-78
2023/07/24 01:00:21;;;;;;;12.50;8.75;;;;;;;20.25;67.67;64097.41;5125282;28;20202;-77
2023/07/24 01:02:50;;;;;;;12.23;8.32;;;;;;;20.21;66.44;64093.75;5128210;28;20222;-76
2023/07/24 01:05:18;;;;;;;14.43;8.95;;;;;;;20.14;66.47;64083.84;5128242;28;20209;-77
2023/07/24 01:07:45;;;;;;;11.77;8.40;;;;;;;20.03;67.55;64072.38;5125871;28;20588;-76
2023/07/24 01:10:12;;;;;;;14.07;9.25;;;;;;;20.02;65.19;64078.59;5126931;28;20293;-77
2023/07/24 01:12:46;;;;;;;14.43;8.50;;;;;;;19.99;64.81;64070.25;5123577;28;20214;-77
2023/07/24 01:15:21;;;;;;;14.02;8.57;;;;;;;19.90;65.80;64055.69;5125248;28;20387;-78
2023/07/24 01:17:58;;;;;;;12.40;8.70;;;;;;;19.89;66.43;64065.00;5111494;28;20214;-76
2023/07/24 01:20:28;;;;;;;14.18;9.00;;;;;;;19.84;66.47;64054.63;5127573;28;20197;-77
2023/07/24 01:23:12;;;;;;;14.02;9.25;;;;;;;19.70;67.22;64040.00;5125581;28;20220;-77
2023/07/24 01:25:55;;;;;;;12.80;9.07;;;;;;;19.68;66.22;64037.91;5111630;28;20244;-76
2023/07/24 01:28:22;;;;;;;12.82;8.85;;;;;;;19.67;65.70;64037.41;5106463;28;20183;-76
2023/07/24 01:30:49;;;;;;;14.98;9.00;;;;;;;19.68;66.28;64037.91;5114037;28;20437;-76
2023/07/24 01:33:17;;;;;;;13.95;8.60;;;;;;;19.63;64.63;64030.66;5127488;28;20201;-77
2023/07/24 01:35:45;;;;;;;15.00;9.90;;;;;;;19.61;66.27;64030.63;5130255;28;20217;-77
2023/07/24 01:38:14;;;;;;;15.73;10.32;;;;;;;19.53;65.12;64025.91;5127411;28;20254;-77
2023/07/24 01:40:41;;;;;;;15.52;10.10;;;;;;;19.53;64.90;64025.91;5125177;28;20198;-76
2023/07/24 01:43:10;;;;;;;15.07;9.23;;;;;;;19.46;67.78;64016.03;5126148;28;20218;-76
2023/07/24 01:45:37;;;;;;;13.70;9.25;;;;;;;19.37;70.23;64001.47;5127192;28;20364;-77
2023/07/24 01:48:05;;;;;;;18.05;9.23;;;;;;;19.30;72.06;63999.34;5120160;28;20195;-78
2023/07/24 01:50:33;;;;;;;13.65;10.10;;;;;;;19.25;72.61;63991.00;5111329;28;20222;-77
2023/07/24 01:53:00;;;;;;;15.25;9.85;;;;;;;19.16;72.37;63984.72;5125857;28;20199;-77
2023/07/24 01:55:27;;;;;;;13.55;9.43;;;;;;;19.16;72.15;63984.72;5129154;28;20231;-77
2023/07/24 01:57:54;;;;;;;16.35;10.27;;;;;;;19.17;70.88;63985.75;5125305;28;20203;-77
2023/07/24 02:00:23;;;;;;;19.10;10.05;;;;;;;19.11;71.24;63979.50;5125865;28;20197;-77
2023/07/24 02:02:50;;;;;;;15.00;9.65;;;;;;;19.12;68.76;63977.44;5126039;28;20218;-77
2023/07/24 02:05:16;;;;;;;17.08;10.55;;;;;;;19.13;67.92;63984.19;5125482;28;20270;-77
2023/07/24 02:07:44;;;;;;;18.88;10.52;;;;;;;19.16;66.21;63987.31;5128171;28;20239;-77
2023/07/24 02:10:11;;;;;;;15.93;9.77;;;;;;;19.14;67.14;63985.22;5125921;28;20237;-77
2023/07/24 02:12:38;;;;;;;17.65;10.27;;;;;;;19.17;66.37;63985.75;5111691;28;20219;-77
2023/07/24 02:15:06;;;;;;;17.35;10.48;;;;;;;19.18;65.77;63989.38;5119794;28;20202;-77
2023/07/24 02:17:34;;;;;;;18.88;11.43;;;;;;;19.20;66.58;63988.91;5126138;28;20458;-76
2023/07/24 02:20:02;;;;;;;16.08;9.80;;;;;;;19.04;68.33;63977.38;5124076;28;20194;-76
2023/07/24 02:22:29;;;;;;;13.95;10.25;;;;;;;19.13;68.82;63981.59;5125872;28;20218;-76
2023/07/24 02:24:56;;;;;;;16.30;9.70;;;;;;;19.26;70.40;63994.63;5128318;28;20209;-76
2023/07/24 02:27:27;;;;;;;16.73;10.68;;;;;;;19.31;68.57;63999.88;5128434;28;20215;-77
2023/07/24 02:29:55;;;;;;;17.35;10.63;;;;;;;19.31;67.98;64000.38;5121854;28;20282;-77
2023/07/24 02:32:22;;;;;;;15.45;10.68;;;;;;;19.32;65.15;63998.84;5125928;28;20226;-77
2023/07/24 02:34:51;;;;;;;16.52;10.57;;;;;;;19.32;63.57;63998.84;5125886;28;20198;-77
2023/07/24 02:37:19;;;;;;;20.42;9.75;;;;;;;19.34;63.48;64000.94;5124460;28;20222;-76
2023/07/24 02:39:46;;;;;;;16.80;9.93;;;;;;;19.34;64.20;64003.00;5123390;28;20252;-77
2023/07/24 02:42:15;;;;;;;16.08;10.52;;;;;;;19.34;64.56;64003.53;5128904;28;20211;-77
2023/07/24 02:44:41;;;;;;;16.60;10.30;;;;;;;19.29;62.76;63997.75;5124568;28;20220;-77
2023/07/24 02:47:09;;;;;;;16.10;10.15;;;;;;;19.31;62.02;63997.28;5124740;28;20214;-76
2023/07/24 02:49:36;;;;;;;14.48;9.68;;;;;;;19.35;62.07;64004.03;5127524;28;20212;-77
2023/07/24 02:52:06;;;;;;;13.93;10.52;;;;;;;19.31;63.30;63997.78;5126202;28;20211;-77
2023/07/24 02:54:33;;;;;;;19.13;11.27;;;;;;;19.32;62.81;63998.31;5130049;28;20190;-77
2023/07/24 02:57:00;;;;;;;13.55;9.65;;;;;;;19.32;62.70;63996.25;5121775;28;20222;-76
2023/07/24 02:59:27;;;;;;;20.75;10.70;;;;;;;19.29;61.99;63998.25;5126170;28;20191;-77
2023/07/24 03:01:54;;;;;;;17.15;10.00;;;;;;;19.24;61.72;63995.63;5128885;28;20233;-77
2023/07/24 03:04:21;;;;;;;17.60;10.88;;;;;;;19.25;61.85;63993.59;5129684;28;20191;-78
2023/07/24 03:06:48;;;;;;;19.00;11.18;;;;;;;19.22;62.74;63990.97;5127485;28;20215;-76
2023/07/24 03:09:16;;;;;;;15.80;10.20;;;;;;;19.23;63.18;63991.50;5130626;28;20195;-76
2023/07/24 03:11:44;;;;;;;16.27;10.35;;;;;;;19.23;63.59;63989.44;5130087;28;20256;-77
2023/07/24 03:14:11;;;;;;;19.83;11.00;;;;;;;19.18;62.41;63991.97;5125940;28;20205;-78
2023/07/24 03:16:38;;;;;;;21.63;11.02;;;;;;;19.15;63.08;63983.16;5128342;28;20527;-77
2023/07/24 03:19:05;;;;;;;16.08;9.82;;;;;;;19.07;62.19;63972.75;5131009;28;20222;-78
2023/07/24 03:21:32;;;;;;;17.80;10.63;;;;;;;19.11;62.69;63978.97;5128893;28;20222;-77
2023/07/24 03:24:00;;;;;;;16.65;10.93;;;;;;;19.11;63.09;63974.34;5121860;28;20199;-77
2023/07/24 03:26:28;;;;;;;18.17;10.70;;;;;;;19.15;62.19;63983.69;5124623;28;20218;-76
2023/07/24 03:28:55;;;;;;;18.05;10.55;;;;;;;19.20;60.48;63986.31;5128077;28;20202;-77
2023/07/24 03:31:22;;;;;;;15.02;9.68;;;;;;;19.22;62.06;63985.28;5127581;28;20305;-77
2023/07/24 03:33:49;;;;;;;17.60;9.68;;;;;;;19.24;62.00;63990.47;5126346;28;20270;-76
2023/07/24 03:36:17;;;;;;;15.32;9.60;;;;;;;19.27;59.98;63996.19;5127683;28;20285;-77
2023/07/24 03:38:43;;;;;;;17.15;10.35;;;;;;;19.31;59.13;64002.97;5128321;28;20199;-77
2023/07/24 03:41:10;;;;;;;16.67;10.20;;;;;;;19.34;58.83;63998.34;5127159;28;20277;-76
2023/07/24 03:43:40;;;;;;;13.85;10.45;;;;;;;19.39;61.35;64005.63;5132516;28;20209;-77
2023/07/24 03:46:07;;;;;;;18.05;10.27;;;;;;;19.49;65.72;64021.22;5127707;28;20241;-76
2023/07/24 03:48:34;;;;;;;14.73;10.07;;;;;;;19.51;68.39;64021.25;5128443;28;20198;-77
2023/07/24 03:51:03;;;;;;;15.48;9.55;;;;;;;19.59;70.50;64026.47;5124999;28;20236;-78
2023/07/24 03:53:29;;;;;;;21.20;10.45;;;;;;;19.61;71.23;64028.03;5128008;28;20203;-77
2023/07/24 03:55:56;;;;;;;12.95;10.23;;;;;;;19.64;71.18;64034.28;5126259;28;20218;-77
2023/07/24 03:58:23;;;;;;;15.68;9.98;;;;;;;19.67;70.46;64031.72;5128149;28;20198;-75
2023/07/24 04:00:52;;;;;;;17.00;10.13;;;;;;;19.71;67.67;64041.56;5127906;28;20211;-77
2023/07/24 04:03:19;;;;;;;15.05;9.63;;;;;;;19.75;67.48;64040.59;5129017;28;20222;-77
2023/07/24 04:05:45;;;;;;;13.63;9.10;;;;;;;19.74;68.48;64046.78;5126907;28;20202;-77
2023/07/24 04:08:12;;;;;;;14.57;9.55;;;;;;;19.70;69.89;64037.94;5120717;28;20199;-77
2023/07/24 04:10:40;;;;;;;16.75;10.45;;;;;;;19.68;70.83;64035.88;5123359;28;20231;-76
2023/07/24 04:13:07;;;;;;;14.23;10.25;;;;;;;19.77;70.99;64047.84;5124840;28;20195;-78
2023/07/24 04:15:34;;;;;;;13.43;9.00;;;;;;;19.88;70.98;64061.88;5129388;28;20205;-77
2023/07/24 04:18:03;;;;;;;17.48;9.70;;;;;;;19.94;70.42;64065.06;5128366;28;20191;-79
2023/07/24 04:20:30;;;;;;;22.45;10.27;;;;;;;20.05;70.26;64071.88;5120022;28;20196;-77
2023/07/24 04:22:57;;;;;;;17.25;10.50;;;;;;;20.14;70.31;64085.94;5127044;28;20195;-76
2023/07/24 04:25:25;;;;;;;16.45;10.45;;;;;;;20.12;69.99;64078.66;5129222;28;20467;-78
2023/07/24 04:27:51;;;;;;;14.90;10.18;;;;;;;20.20;71.02;64084.44;5123687;28;20283;-77
2023/07/24 04:30:18;;;;;;;15.23;10.13;;;;;;;20.37;71.85;64109.94;5127472;28;20195;-77
2023/07/24 04:32:46;;;;;;;14.35;9.77;;;;;;;20.51;70.80;64125.09;5126051;28;20562;-77
2023/07/24 04:35:14;;;;;;;14.43;9.50;;;;;;;20.65;70.87;64141.75;5131675;28;20191;-81
2023/07/24 04:37:41;;;;;;;19.42;10.55;;;;;;;20.71;70.60;64142.34;5130624;28;20320;-79
2023/07/24 04:40:10;;;;;;;13.65;9.32;;;;;;;20.74;71.36;64146.00;5124445;28;20276;-77
2023/07/24 04:42:37;;;;;;;16.30;10.38;;;;;;;20.63;72.73;64137.09;5127546;28;20214;-75
2023/07/24 04:45:04;;;;;;;13.73;10.10;;;;;;;20.60;74.95;64133.97;5126674;28;20433;-78
2023/07/24 04:47:31;;;;;;;14.98;10.00;;;;;;;20.85;73.53;64159.53;5117700;28;20221;-76
2023/07/24 04:49:58;;;;;;;19.08;11.20;;;;;;;20.97;73.20;64172.56;5125700;28;20203;-79
2023/07/24 04:52:27;;;;;;;16.40;10.32;;;;;;;21.02;71.72;64177.31;5131811;28;20252;-80
2023/07/24 04:54:54;;;;;;;19.17;9.30;;;;;;;21.08;71.99;64181.50;5129795;28;20208;-78
2023/07/24 04:57:21;;;;;;;17.55;10.27;;;;;;;21.19;71.54;64189.88;5128897;28;20214;-80
2023/07/24 04:59:48;;;;;;;17.63;10.07;;;;;;;21.34;72.63;64211.25;5129003;28;20195;-79
2023/07/24 05:02:15;;;;;;;14.35;10.15;;;;;;;21.39;75.82;64218.53;5132349;28;20452;-79
2023/07/24 05:04:42;;;;;;;14.10;10.38;;;;;;;21.39;75.37;64213.34;5128960;28;20207;-79
2023/07/24 05:07:10;;;;;;;16.15;10.05;;;;;;;21.42;76.22;64219.06;5130507;28;20210;-80
2023/07/24 05:09:39;;;;;;;22.40;10.27;;;;;;;21.47;73.86;64227.41;5122122;28;20194;-80
2023/07/24 05:12:07;;;;;;;16.75;11.23;;;;;;;21.25;74.56;64201.84;5129528;28;20472;-79
2023/07/24 05:14:34;;;;;;;14.60;9.95;;;;;;;21.08;74.95;64178.38;5127528;28;20191;-80
2023/07/24 05:17:02;;;;;;;20.83;10.98;;;;;;;21.07;75.31;64180.44;5127570;28;20607;-80
2023/07/24 05:19:29;;;;;;;18.02;10.90;;;;;;;21.06;75.22;64178.88;5129769;28;20198;-82
2023/07/24 05:21:56;;;;;;;16.65;10.80;;;;;;;21.42;73.88;64219.06;5133196;28;20324;-80
2023/07/24 05:24:24;;;;;;;15.50;11.38;;;;;;;21.59;72.76;64239.94;5112730;28;20191;-79
2023/07/24 05:26:52;;;;;;;18.95;11.27;;;;;;;21.58;71.51;64236.31;5128578;28;20225;-79
2023/07/24 05:29:19;;;;;;;15.90;10.80;;;;;;;21.54;70.38;64229.53;5119581;28;20191;-80
2023/07/24 05:31:46;;;;;;;21.30;12.05;;;;;;;21.63;71.76;64241.53;5119510;28;20231;-78
2023/07/24 05:34:13;;;;;;;16.98;10.20;;;;;;;21.82;69.36;64260.34;5108858;28;20241;-79
2023/07/24 05:36:41;;;;;;;18.42;11.10;;;;;;;21.89;69.44;64270.78;5110209;28;20211;-79
2023/07/24 05:39:08;;;;;;;16.08;10.35;;;;;;;21.86;68.97;64269.72;5109741;28;20203;-80
2023/07/24 05:41:35;;;;;;;20.35;10.57;;;;;;;22.02;67.52;64281.28;5118830;28;20233;-80
2023/07/24 05:44:04;;;;;;;19.92;10.88;;;;;;;22.18;66.61;64301.09;5124904;28;20210;-80
2023/07/24 05:46:31;;;;;;;14.43;10.30;;;;;;;22.21;68.17;64301.63;5130645;28;20249;-81
2023/07/24 05:49:00;;;;;;;18.63;11.32;;;;;;;22.47;64.70;64325.69;5118226;28;20213;-81
2023/07/24 05:51:27;;;;;;;19.52;11.82;;;;;;;22.61;64.68;64340.34;5110662;28;20231;-79
2023/07/24 05:53:54;;;;;;;16.55;9.80;;;;;;;22.72;64.36;64351.88;5109411;28;20234;-79
2023/07/24 05:56:24;;;;;;;17.50;10.60;;;;;;;22.87;61.27;64367.53;5111026;28;20528;-80
2023/07/24 05:58:51;;;;;;;23.90;11.40;;;;;;;22.92;59.74;64378.50;5112358;28;20226;-79
2023/07/24 06:01:20;;;;;;;17.65;10.50;;;;;;;23.09;57.53;64392.63;5118731;28;20527;-80
2023/07/24 06:03:47;;;;;;;15.45;10.38;;;;;;;23.10;57.15;64393.69;5122174;28;20361;-81
2023/07/24 06:06:14;;;;;;;14.93;10.50;;;;;;;23.27;57.44;64409.38;5109635;28;20222;-79
2023/07/24 06:08:41;;;;;;;15.50;10.98;;;;;;;23.24;59.25;64405.72;5116790;28;20261;-81
2023/07/24 06:11:10;;;;;;;13.10;9.77;;;;;;;23.24;59.57;64408.84;5115587;28;20559;-81
2023/07/24 06:13:37;;;;;;;13.13;9.45;;;;;;;23.38;59.43;64420.91;5110757;28;20183;-80
2023/07/24 06:16:07;;;;;;;15.52;10.52;;;;;;;23.30;60.18;64417.72;5109879;28;20215;-79
2023/07/24 06:18:35;;;;;;;13.15;9.32;;;;;;;23.41;60.46;64424.06;5108809;28;20244;-80
2023/07/24 06:21:03;;;;;;;10.80;8.52;;;;;;;23.62;61.14;64440.81;5111350;28;20223;-79
2023/07/24 06:23:30;;;;;;;10.35;8.95;;;;;;;23.70;60.23;64453.88;5111288;28;20218;-79
2023/07/24 06:25:57;;;;;;;11.73;8.35;;;;;;;23.55;61.45;64438.16;5126069;28;20224;-80
2023/07/24 06:28:24;;;;;;;21.05;10.23;;;;;;;23.47;60.58;64432.41;5128755;28;20195;-79
2023/07/24 06:30:54;;;;;;;14.98;9.20;;;;;;;23.53;61.35;64439.22;5122604;28;20206;-81
2023/07/24 06:33:21;;;;;;;16.73;8.98;;;;;;;23.81;58.11;64463.31;5119604;28;20277;-80
2023/07/24 06:35:50;;;;;;;13.02;9.43;;;;;;;23.96;57.22;64483.69;5130011;28;20218;-80
2023/07/24 06:38:17;;;;;;;17.50;9.55;;;;;;;23.73;57.93;64459.59;5130802;28;20204;-79
2023/07/24 06:40:45;;;;;;;12.68;8.73;;;;;;;23.91;58.35;64476.38;5133886;28;20220;-81
2023/07/24 06:43:12;;;;;;;10.85;8.90;;;;;;;23.76;58.01;64465.34;5115384;28;20199;-81
2023/07/24 06:45:39;;;;;;;12.43;8.68;;;;;;;23.71;58.74;64460.13;5127483;28;20198;-81
2023/07/24 06:48:07;;;;;;;13.90;8.95;;;;;;;23.77;59.22;64461.72;5113020;28;20201;-81
2023/07/24 06:50:34;;;;;;;21.85;10.15;;;;;;;23.94;58.77;64482.09;5129355;28;20513;-80
2023/07/24 06:53:02;;;;;;;10.93;8.60;;;;;;;24.26;59.81;64514.56;5132182;28;20226;-80
2023/07/24 06:55:29;;;;;;;12.63;8.30;;;;;;;24.19;60.60;64505.19;5121002;28;20188;-79
2023/07/24 06:57:56;;;;;;;12.32;8.65;;;;;;;24.34;60.82;64522.94;5124317;28;20208;-78
2023/07/24 07:00:23;;;;;;;13.98;9.00;;;;;;;24.53;60.35;64542.84;5126609;28;20564;-80
2023/07/24 07:02:50;;;;;;;15.68;8.57;;;;;;;24.61;59.13;64549.13;5123243;28;20310;-78
2023/07/24 07:05:17;;;;;;;10.85;8.13;;;;;;;24.75;59.34;64561.22;5128960;28;20202;-80
2023/07/24 07:07:44;;;;;;;12.30;8.90;;;;;;;24.38;60.22;64524.53;5135648;28;20215;-78
2023/07/24 07:10:13;;;;;;;11.80;8.57;;;;;;;24.45;59.79;64540.22;5121100;28;20199;-79
2023/07/24 07:12:40;;;;;;;11.73;8.82;;;;;;;24.45;59.52;64535.00;5125484;27;20239;-79
2023/07/24 07:15:08;;;;;;;12.63;8.48;;;;;;;24.51;59.13;64540.75;5121985;28;20205;-78
2023/07/24 07:17:36;;;;;;;15.45;8.60;;;;;;;24.39;60.41;64530.78;5128705;28;20233;-78
2023/07/24 07:20:04;;;;;;;12.00;8.30;;;;;;;24.39;60.96;64528.19;5114683;28;20277;-78
2023/07/24 07:22:31;;;;;;;13.98;8.98;;;;;;;24.62;60.78;64549.66;5132938;28;20214;-81
2023/07/24 07:24:58;;;;;;;13.45;9.23;;;;;;;24.47;60.23;64537.06;5127942;28;20199;-80
2023/07/24 07:27:26;;;;;;;12.77;8.95;;;;;;;24.50;60.69;64544.91;5123406;28;20271;-80
2023/07/24 07:29:53;;;;;;;21.40;9.52;;;;;;;24.50;62.07;64537.09;5119953;28;20245;-80
2023/07/24 07:32:20;;;;;;;14.40;8.90;;;;;;;24.76;61.55;64570.09;5131285;28;20231;-80
2023/07/24 07:34:48;;;;;;;13.95;8.80;;;;;;;24.81;58.50;64569.59;5133768;28;20236;-78
2023/07/24 07:37:16;;;;;;;13.95;9.38;;;;;;;24.68;60.13;64555.94;5120147;28;20219;-80
2023/07/24 07:39:42;;;;;;;15.55;9.30;;;;;;;24.81;60.63;64577.41;5125852;28;20211;-80
2023/07/24 07:42:10;;;;;;;13.85;9.60;;;;;;;24.78;59.75;64569.06;5118794;28;20245;-79
2023/07/24 07:44:39;;;;;;;11.82;8.82;;;;;;;24.67;59.74;64560.09;5125561;28;20199;-78
2023/07/24 07:47:06;;;;;;;11.30;9.13;;;;;;;24.94;59.53;64583.19;5125147;28;20219;-78
2023/07/24 07:49:33;;;;;;;12.32;9.40;;;;;;;24.93;59.66;64585.28;5125677;28;20486;-80
2023/07/24 07:52:00;;;;;;;13.00;9.27;;;;;;;25.20;58.13;64617.72;5120236;28;20245;-80
2023/07/24 07:54:28;;;;;;;15.02;9.63;;;;;;;25.45;58.00;64636.13;5123129;28;20554;-79
2023/07/24 07:56:55;;;;;;;12.35;9.65;;;;;;;25.46;56.19;64637.16;5126533;28;20278;-79
2023/07/24 07:59:23;;;;;;;14.88;9.02;;;;;;;25.55;57.75;64649.72;5121823;28;20195;-79
2023/07/24 08:01:51;;;;;;;15.68;10.00;;;;;;;25.65;55.49;64660.22;5120182;28;20218;-77
2023/07/24 08:04:18;;;;;;;16.88;9.43;;;;;;;25.92;55.13;64685.38;5123860;28;20229;-78
2023/07/24 08:06:45;;;;;;;16.30;10.25;;;;;;;26.09;52.97;64703.72;5121589;28;20283;-77
2023/07/24 08:09:12;;;;;;;10.82;8.68;;;;;;;26.20;52.58;64717.88;5116577;28;20245;-77
2023/07/24 08:11:39;;;;;;;13.02;8.95;;;;;;;26.18;52.27;64713.16;5116835;28;20232;-77
2023/07/24 08:14:07;;;;;;;13.02;9.93;;;;;;;26.34;52.02;64731.50;5122683;28;20279;-77
2023/07/24 08:16:34;;;;;;;13.00;8.65;;;;;;;26.33;53.03;64731.00;5114831;28;20232;-77
2023/07/24 08:19:04;;;;;;;13.85;8.82;;;;;;;26.61;50.58;64762.94;5119432;28;20195;-77
2023/07/24 08:21:31;;;;;;;13.77;9.02;;;;;;;26.84;49.90;64786.56;5123384;28;20215;-77
2023/07/24 08:23:59;;;;;;;11.50;8.75;;;;;;;26.81;50.82;64783.97;5116233;28;20207;-76
2023/07/24 08:26:27;;;;;;;12.90;8.55;;;;;;;26.89;50.20;64787.13;5114553;28;20242;-77
2023/07/24 08:28:54;;;;;;;12.43;9.50;;;;;;;27.04;50.00;64802.34;5115967;28;20211;-75
2023/07/24 08:31:21;;;;;;;15.27;8.82;;;;;;;27.22;50.28;64823.81;5120678;28;20223;-77
2023/07/24 08:33:48;;;;;;;16.05;8.75;;;;;;;27.29;48.10;64834.34;5121905;28;20267;-77
2023/07/24 08:36:17;;;;;;;11.32;8.65;;;;;;;27.50;47.18;64853.22;5122286;28;20234;-78
2023/07/24 08:38:44;;;;;;;13.35;8.45;;;;;;;27.74;47.58;64881.03;5116274;28;20233;-77
2023/07/24 08:41:13;;;;;;;11.43;8.45;;;;;;;27.90;47.40;64892.06;5119097;28;20246;-76
2023/07/24 08:43:43;;;;;;;12.40;9.45;;;;;;;27.82;46.74;64884.19;5113905;28;20468;-77
2023/07/24 08:46:11;;;;;;;9.65;7.85;;;;;;;27.97;47.20;64904.66;5118591;28;20523;-77
2023/07/24 08:48:39;;;;;;;10.02;8.40;;;;;;;27.97;46.72;64905.19;5123204;27;20201;-75
2023/07/24 08:51:08;;;;;;;12.65;9.35;;;;;;;28.01;45.46;64906.25;5127021;28;20211;-77
2023/07/24 08:53:39;;;;;;;12.20;8.45;;;;;;;28.04;46.07;64906.78;5116856;28;20234;-78
2023/07/24 08:56:07;;;;;;;11.50;8.10;;;;;;;27.77;45.78;64881.03;5117233;28;20214;-77
2023/07/24 08:58:35;;;;;;;13.25;8.38;;;;;;;27.95;46.55;64903.09;5115994;28;20202;-76
2023/07/24 09:01:04;;;;;;;10.20;7.93;;;;;;;27.94;46.27;64901.53;5117217;28;20218;-77
2023/07/24 09:03:33;;;;;;;8.75;7.85;;;;;;;28.11;44.56;64919.88;5118624;28;20205;-77
2023/07/24 09:06:01;;;;;;;11.65;7.78;;;;;;;28.20;44.21;64923.56;5123206;28;20222;-77
2023/07/24 09:08:32;;;;;;;12.73;8.20;;;;;;;28.30;43.69;64937.22;5118622;28;20228;-76
2023/07/24 09:11:02;;;;;;;10.90;8.50;;;;;;;28.21;43.83;64927.25;5116375;28;20278;-78
2023/07/24 09:13:30;;;;;;;11.35;7.88;;;;;;;28.28;44.74;64932.50;5119512;28;20222;-78
2023/07/24 09:15:57;;;;;;;10.73;8.77;;;;;;;28.41;43.25;64948.25;5120354;28;20234;-76
2023/07/24 09:18:24;;;;;;;13.60;8.43;;;;;;;28.23;42.43;64929.34;5117085;28;20224;-78
2023/07/24 09:20:51;;;;;;;13.77;7.90;;;;;;;28.35;42.71;64939.84;5113783;28;20215;-77
2023/07/24 09:23:27;;;;;;;8.85;7.88;;;;;;;28.61;42.04;64968.75;5122315;28;20270;-77
2023/07/24 09:25:54;;;;;;;11.55;8.32;;;;;;;28.72;41.19;64980.81;5116658;28;20246;-77
2023/07/24 09:28:22;;;;;;;12.40;8.85;;;;;;;28.92;40.92;64999.22;5115182;28;20213;-77
2023/07/24 09:30:54;;;;;;;11.85;9.15;;;;;;;29.12;40.36;65022.31;5115309;28;20215;-77
2023/07/24 09:33:20;;;;;;;12.15;8.77;;;;;;;29.14;41.35;65024.97;5119508;28;20309;-77
2023/07/24 09:35:58;;;;;;;13.02;8.70;;;;;;;29.32;41.62;65041.25;5117744;28;20230;-79
2023/07/24 09:38:25;;;;;;;12.88;9.30;;;;;;;29.50;40.57;65062.78;5112365;28;20283;-77
2023/07/24 09:40:55;;;;;;;11.00;8.60;;;;;;;29.61;40.72;65071.19;5116723;28;20230;-77
2023/07/24 09:43:25;;;;;;;11.65;9.35;;;;;;;29.39;41.17;65051.22;5118800;28;20213;-77
2023/07/24 09:45:53;;;;;;;11.38;9.25;;;;;;;29.42;41.12;65054.38;5116597;28;20206;-77
2023/07/24 09:48:22;;;;;;;13.98;9.70;;;;;;;29.55;41.54;65070.13;5116864;28;20240;-77
2023/07/24 09:50:53;;;;;;;15.95;9.05;;;;;;;29.25;40.82;65041.25;5111310;28;20229;-77
2023/07/24 09:53:25;;;;;;;16.77;9.13;;;;;;;29.33;40.53;65044.94;5127766;28;20580;-76
2023/07/24 09:55:58;;;;;;;16.00;8.93;;;;;;;29.48;40.54;65060.69;5122951;28;20223;-76
2023/07/24 09:58:29;;;;;;;15.80;8.95;;;;;;;29.61;40.61;65073.81;5117311;28;20198;-77
2023/07/24 10:00:57;;;;;;;13.57;8.63;;;;;;;29.36;40.01;65045.44;5115459;28;20611;-76
2023/07/24 10:03:26;;;;;;;13.00;8.27;;;;;;;29.67;40.10;65082.78;5120699;28;20502;-77
2023/07/24 10:05:54;;;;;;;16.13;10.10;;;;;;;29.87;39.48;65098.56;5117541;28;20219;-77
2023/07/24 10:08:22;;;;;;;11.88;9.30;;;;;;;29.95;39.31;65109.03;5119469;28;20199;-77
2023/07/24 10:10:53;;;;;;;13.15;9.00;;;;;;;29.96;38.84;65110.09;5120476;28;20258;-77
2023/07/24 10:13:24;;;;;;;12.32;9.52;;;;;;;29.79;40.04;65092.75;5121139;28;20427;-77
2023/07/24 10:15:53;;;;;;;14.57;8.93;;;;;;;30.13;40.92;65125.34;5117096;28;20559;-78
2023/07/24 10:18:27;;;;;;;16.15;10.30;;;;;;;30.41;40.59;65160.06;5118932;28;20526;-77
2023/07/24 10:21:02;;;;;;;12.60;9.50;;;;;;;30.56;38.96;65178.97;5113940;28;20396;-77
2023/07/24 10:23:30;;;;;;;15.95;9.27;;;;;;;30.83;38.38;65199.00;5115050;28;20190;-79
2023/07/24 10:25:57;;;;;;;12.52;8.88;;;;;;;30.80;37.65;65200.56;5119493;28;20237;-77
2023/07/24 10:28:33;;;;;;;15.50;8.90;;;;;;;30.78;37.04;65195.81;5118295;28;20290;-77
2023/07/24 10:31:04;;;;;;;12.77;7.53;;;;;;;31.01;36.98;65217.91;5117124;28;20351;-78
2023/07/24 10:33:32;;;;;;;14.27;7.72;;;;;;;31.28;36.70;65251.06;5116059;28;20260;-77
2023/07/24 10:36:08;;;;;;;15.70;8.07;;;;;;;31.47;36.77;65268.44;5116452;28;20264;-78
2023/07/24 10:38:37;;;;;;;14.00;7.63;;;;;;;31.73;36.30;65300.56;5117949;28;20226;-77
2023/07/24 10:41:06;;;;;;;12.93;8.25;;;;;;;31.77;36.01;65297.41;5123202;28;20226;-77
2023/07/24 10:43:42;;;;;;;18.88;9.38;;;;;;;31.95;36.27;65321.63;5123771;28;20201;-77
2023/07/24 10:46:12;;;;;;;19.08;7.97;;;;;;;31.95;35.48;65321.63;5125526;28;20221;-77
2023/07/24 10:48:42;;;;;;;10.95;6.60;;;;;;;32.05;35.20;65334.28;5114643;28;20199;-77
2023/07/24 10:51:13;;;;;;;14.45;7.57;;;;;;;31.76;35.78;65298.97;5116302;28;20249;-77
2023/07/24 10:53:44;;;;;;;9.45;6.53;;;;;;;31.83;34.80;65305.81;5116891;28;20242;-77
2023/07/24 10:56:12;;;;;;;11.15;7.55;;;;;;;31.23;35.98;65243.19;5116426;28;20257;-76
2023/07/24 10:58:42;;;;;;;12.80;8.07;;;;;;;31.30;36.38;65250.53;5122773;28;20195;-79
2023/07/24 11:01:11;;;;;;;12.18;7.22;;;;;;;31.69;35.03;65288.97;5117529;28;20437;-78
2023/07/24 11:03:41;;;;;;;12.55;6.88;;;;;;;31.76;34.56;65293.16;5116817;28;20195;-78
2023/07/24 11:06:14;;;;;;;11.90;7.07;;;;;;;31.77;35.49;65302.66;5117988;28;20219;-76
2023/07/24 11:08:42;;;;;;;15.98;7.15;;;;;;;31.73;35.79;65295.28;5117251;28;20207;-76
2023/07/24 11:11:12;;;;;;;11.75;7.30;;;;;;;31.44;35.21;65263.19;5117486;28;20225;-77
2023/07/24 11:13:39;;;;;;;10.48;6.57;;;;;;;31.72;34.38;65297.38;5118829;28;20226;-78
2023/07/24 11:16:08;;;;;;;14.40;6.93;;;;;;;31.55;35.27;65276.88;5118451;28;20214;-79
2023/07/24 11:18:48;;;;;;;9.43;6.97;;;;;;;31.48;35.71;65267.41;5111744;28;20206;-77
2023/07/24 11:21:16;;;;;;;7.53;6.53;;;;;;;31.29;35.68;65247.38;5116874;28;20225;-78
2023/07/24 11:23:47;;;;;;;14.90;7.40;;;;;;;31.35;33.29;65253.72;5121731;27;20291;-77
2023/07/24 11:26:15;;;;;;;11.02;7.03;;;;;;;31.45;32.95;65269.50;5123389;28;20214;-77